»·PEaware :: N3021C KSBP-KSBA

N3021C :: KSBP-KSBA

FLIGHT INFORMATION

Flight Status: Arrived
Operator: Privately registered:
United States
More flights under this callsign
Pilot: Mark B. (9455)
Aircraft: CESSNA 172 SKYHAWK
(C172)
More flights by this aircraft type
Origin: KSBP San Luis Co Regl
United States
Destination: KSBA Santa Barbara Mun
United States
More flights between these airports :: More routes between these airports
Route: +MQO V27 GVO
File this flight plan on PilotEdge
Remarks:
Altitude:
(Current/Filed)
7,000ft
Speed:
(Current/Filed)
115kts
Departed: 01-Jul-17 08:11 PM
Arrived: 01-Jul-17 09:00 PM
Distance/Time
Traveled:
62nm/0:49
Distance/Time
To Go:
Arrived

Flight Plot

Page will automatically refresh every two minutes.


Map Options




Map Legend


Flown Route
Filed Route
Departure Airport
Arrival Airport
Navaid (VOR, NDB)
Fix

Horizontal Profiles

Position Reports

Time Latitude Longitude Heading Altitude Ground
Speed
01-Jul-17 19:59 35.238081 -120.638658 270 215ft 0kts
01-Jul-17 20:00 35.238081 -120.638658 270 215ft 0kts
01-Jul-17 20:01 35.238081 -120.638658 270 215ft 0kts
01-Jul-17 20:02 35.238081 -120.638658 270 215ft 0kts
01-Jul-17 20:03 35.238081 -120.638658 270 215ft 0kts
01-Jul-17 20:04 35.238081 -120.638658 270 215ft 0kts
01-Jul-17 20:05 35.238081 -120.638658 270 215ft 0kts
01-Jul-17 20:06 35.238081 -120.638658 270 215ft 0kts
01-Jul-17 20:07 35.238081 -120.638658 270 215ft 0kts
01-Jul-17 20:08 35.238081 -120.638658 270 215ft 0kts
01-Jul-17 20:09 35.238081 -120.638658 270 215ft 0kts
01-Jul-17 20:10 35.237964 -120.638917 232 215ft 3kts
01-Jul-17 20:11 35.235344 -120.635593 125 215ft 24kts
01-Jul-17 20:12 35.233219 -120.632439 208 215ft 0kts
01-Jul-17 20:13 35.233219 -120.632439 208 215ft 0kts
01-Jul-17 20:14 35.239448 -120.645107 301 509ft 90kts
01-Jul-17 20:15 35.252405 -120.670853 301 1623ft 86kts
01-Jul-17 20:16 35.265613 -120.695437 304 2667ft 87kts
01-Jul-17 20:17 35.279109 -120.720335 304 3659ft 87kts
01-Jul-17 20:18 35.292840 -120.745806 304 4579ft 89kts
01-Jul-17 20:19 35.307394 -120.774223 302 4982ft 114kts
01-Jul-17 20:20 35.327229 -120.804907 308 5047ft 112kts
01-Jul-17 20:21 35.324114 -120.837246 220 5487ft 98kts
01-Jul-17 20:22 35.299642 -120.833055 143 5860ft 103kts
01-Jul-17 20:23 35.278407 -120.813091 141 6509ft 99kts
01-Jul-17 20:24 35.256676 -120.793048 141 7003ft 110kts
01-Jul-17 20:25 35.230628 -120.770694 141 7002ft 120kts
01-Jul-17 20:26 35.203510 -120.747404 142 6985ft 113kts
01-Jul-17 20:27 35.179475 -120.721710 138 6971ft 122kts
01-Jul-17 20:28 35.154579 -120.695190 139 6951ft 120kts
01-Jul-17 20:29 35.129658 -120.669277 142 7010ft 116kts
01-Jul-17 20:30 35.103743 -120.644468 144 7002ft 116kts
01-Jul-17 20:31 35.078763 -120.618374 139 6940ft 121kts
01-Jul-17 20:32 35.053778 -120.592515 141 6998ft 117kts
01-Jul-17 20:33 35.027983 -120.567782 140 7032ft 114kts
01-Jul-17 20:34 35.002684 -120.543089 142 7008ft 118kts
01-Jul-17 20:35 34.977511 -120.516837 138 7057ft 115kts
01-Jul-17 20:36 34.952364 -120.490660 145 7000ft 118kts
01-Jul-17 20:37 34.924734 -120.468950 141 6997ft 118kts
01-Jul-17 20:38 34.893985 -120.446481 152 6303ft 136kts
01-Jul-17 20:39 34.859009 -120.424352 151 5016ft 147kts
01-Jul-17 20:40 34.824271 -120.400986 150 4024ft 127kts
01-Jul-17 20:41 34.794415 -120.381489 151 4032ft 117kts
01-Jul-17 20:42 34.765313 -120.362664 153 4049ft 117kts
01-Jul-17 20:43 34.735710 -120.344717 153 4013ft 121kts
01-Jul-17 20:44 34.706123 -120.325815 152 4009ft 118kts
01-Jul-17 20:45 34.677001 -120.307092 152 4023ft 119kts
01-Jul-17 20:46 34.647861 -120.287770 150 4020ft 119kts
01-Jul-17 20:47 34.618907 -120.267422 147 4062ft 122kts
01-Jul-17 20:48 34.588614 -120.246552 152 4028ft 125kts
01-Jul-17 20:49 34.557143 -120.227304 153 3971ft 126kts
01-Jul-17 20:50 34.526228 -120.208366 152 4008ft 121kts
01-Jul-17 20:51 34.496424 -120.189388 152 4020ft 118kts
01-Jul-17 20:52 34.466928 -120.170882 152 4024ft 121kts
01-Jul-17 20:53 34.436934 -120.152774 154 3976ft 125kts
01-Jul-17 20:54 34.422689 -120.121159 91 4031ft 117kts
01-Jul-17 20:55 34.422683 -120.082109 92 3674ft 111kts
01-Jul-17 20:56 34.422863 -120.045287 86 3280ft 109kts
01-Jul-17 20:57 34.423826 -120.009161 87 2444ft 109kts
01-Jul-17 20:58 34.425250 -119.974062 85 1881ft 94kts
01-Jul-17 20:59 34.424369 -119.943483 89 1472ft 95kts
01-Jul-17 21:00 34.426424 -119.913335 92 1011ft 89kts
01-Jul-17 21:01 34.427326 -119.884302 90 519ft 84kts
01-Jul-17 21:02 34.427120 -119.858951 88 226ft 54kts
01-Jul-17 21:03 34.427479 -119.843409 87 17ft 23kts

Navigation Log

Ident Type
Flight plan parsing failed, navigation log unavailable